createdAt,value
2018-10-12T00:02:23.914Z,9.32
2018-10-12T00:04:57.609Z,9.32
2018-10-12T00:07:32.020Z,13.23
2018-10-12T00:10:06.599Z,10.52
2018-10-12T00:12:40.171Z,10.15
2018-10-12T00:15:13.774Z,9.05
2018-10-12T00:17:47.384Z,9.68
2018-10-12T00:20:21.226Z,11.80
2018-10-12T00:22:54.893Z,10.73
2018-10-12T00:25:28.694Z,10.68
2018-10-12T00:28:03.027Z,11.60
2018-10-12T00:30:36.758Z,11.10
2018-10-12T00:33:11.245Z,10.85
2018-10-12T00:35:44.849Z,9.43
2018-10-12T00:38:18.428Z,10.70
2018-10-12T00:40:52.032Z,9.30
2018-10-12T00:43:25.627Z,10.98
2018-10-12T00:45:59.169Z,10.30
2018-10-12T00:48:33.770Z,9.32
2018-10-12T00:51:07.526Z,10.13
2018-10-12T00:53:41.307Z,9.32
2018-10-12T00:56:14.861Z,11.75
2018-10-12T00:58:49.395Z,12.43
2018-10-12T01:01:23.015Z,11.18
2018-10-12T01:03:56.881Z,10.98
2018-10-12T01:06:30.602Z,11.15
2018-10-12T01:09:04.136Z,12.20
2018-10-12T01:11:37.877Z,10.02
2018-10-12T01:14:11.453Z,12.13
2018-10-12T01:16:45.241Z,12.48
2018-10-12T01:19:19.553Z,9.88
2018-10-12T01:21:53.281Z,10.52
2018-10-12T01:24:27.073Z,12.95
2018-10-12T01:27:00.813Z,12.68
2018-10-12T01:29:35.277Z,9.98
2018-10-12T01:32:09.737Z,10.35
2018-10-12T01:34:43.530Z,11.07
2018-10-12T01:37:17.082Z,10.00
2018-10-12T01:39:50.936Z,11.18
2018-10-12T01:42:24.507Z,8.88
2018-10-12T01:44:58.125Z,9.35
2018-10-12T01:47:31.700Z,9.70
2018-10-12T01:50:06.002Z,14.50
2018-10-12T01:52:39.633Z,10.80
2018-10-12T01:55:13.206Z,10.23
2018-10-12T01:57:46.980Z,9.93
2018-10-12T02:00:21.376Z,11.02
2018-10-12T02:02:54.921Z,10.18
2018-10-12T02:05:28.584Z,16.67
2018-10-12T02:08:02.125Z,12.63
2018-10-12T02:10:35.729Z,10.10
2018-10-12T02:13:09.529Z,10.00
2018-10-12T02:15:43.269Z,10.50
2018-10-12T02:18:16.784Z,11.27
2018-10-12T02:20:50.287Z,10.40
2018-10-12T02:23:24.058Z,10.55
2018-10-12T02:25:57.596Z,12.23
2018-10-12T02:28:31.244Z,11.05
2018-10-12T02:31:04.998Z,10.05
2018-10-12T02:33:39.298Z,10.45
2018-10-12T02:36:13.236Z,12.05
2018-10-12T02:38:46.832Z,11.12
2018-10-12T02:41:20.413Z,12.10
2018-10-12T02:43:53.994Z,7.65
2018-10-12T02:46:27.693Z,8.13
2018-10-12T02:49:01.294Z,9.43
2018-10-12T02:51:35.609Z,9.30
2018-10-12T02:54:09.371Z,9.32
2018-10-12T02:56:42.980Z,9.23
2018-10-12T02:59:16.725Z,12.00
2018-10-12T03:01:50.546Z,12.07
2018-10-12T03:04:24.147Z,11.18
2018-10-12T03:06:57.960Z,11.80
2018-10-12T03:09:31.579Z,9.65
2018-10-12T03:12:05.965Z,8.75
2018-10-12T03:14:39.661Z,9.88
2018-10-12T03:17:13.523Z,10.20
2018-10-12T03:19:47.270Z,10.60
2018-10-12T03:22:20.812Z,10.60
2018-10-12T03:24:54.369Z,10.52
2018-10-12T03:27:27.995Z,12.13
2018-10-12T03:30:01.565Z,11.70
2018-10-12T03:32:35.934Z,10.23
2018-10-12T03:35:09.666Z,11.45
2018-10-12T03:37:43.246Z,13.60
2018-10-12T03:40:16.834Z,12.25
2018-10-12T03:42:50.527Z,10.68
2018-10-12T03:45:24.128Z,9.73
2018-10-12T03:47:57.695Z,12.23
2018-10-12T03:50:32.214Z,10.95
2018-10-12T03:53:05.837Z,9.30
2018-10-12T03:55:39.373Z,13.75
2018-10-12T03:58:12.929Z,11.18
2018-10-12T04:00:47.269Z,9.40
2018-10-12T04:03:20.786Z,10.98
2018-10-12T04:05:54.342Z,11.02
2018-10-12T04:08:27.917Z,9.77
2018-10-12T04:11:01.577Z,10.02
2018-10-12T04:13:35.117Z,9.68
2018-10-12T04:16:08.706Z,10.85
2018-10-12T04:18:42.447Z,10.93
2018-10-12T04:21:16.838Z,8.25
2018-10-12T04:23:50.593Z,9.27
2018-10-12T04:26:24.938Z,7.05
2018-10-12T04:28:58.488Z,8.52
2018-10-12T04:31:32.105Z,9.75
2018-10-12T04:34:05.857Z,10.00
2018-10-12T04:36:39.434Z,13.05
2018-10-12T04:42:14.408Z,9.55
2018-10-12T04:44:47.994Z,12.80
2018-10-12T04:47:21.772Z,11.95
2018-10-12T04:49:55.436Z,10.43
2018-10-12T04:52:29.236Z,10.27
2018-10-12T04:55:03.016Z,14.00
2018-10-12T04:57:36.870Z,10.93
2018-10-12T05:00:10.693Z,15.30
2018-10-12T05:02:44.542Z,10.77
2018-10-12T05:05:18.087Z,9.90
2018-10-12T05:07:52.866Z,11.75
2018-10-12T05:10:26.615Z,9.90
2018-10-12T05:13:00.616Z,10.20
2018-10-12T05:15:34.182Z,11.07
2018-10-12T05:18:07.992Z,9.32
2018-10-12T05:20:41.588Z,8.38
2018-10-12T05:23:15.133Z,6.75
2018-10-12T05:25:48.822Z,9.20
2018-10-12T05:28:22.588Z,8.73
2018-10-12T05:30:56.297Z,8.48
2018-10-12T05:33:29.902Z,10.20
2018-10-12T05:36:03.499Z,10.23
2018-10-12T05:38:37.985Z,10.57
2018-10-12T05:41:11.765Z,9.38
2018-10-12T05:43:46.228Z,9.10
2018-10-12T05:46:19.792Z,12.00
2018-10-12T05:49:15.026Z,16.05
2018-10-12T05:51:48.742Z,10.00
2018-10-12T05:54:22.535Z,9.38
2018-10-12T05:56:56.345Z,10.18
2018-10-12T05:59:30.201Z,8.25
2018-10-12T06:02:03.794Z,9.13
2018-10-12T06:04:37.370Z,9.43
2018-10-12T06:07:10.894Z,9.23
2018-10-12T06:09:44.630Z,12.18
2018-10-12T06:12:18.309Z,8.35
2018-10-12T06:14:52.006Z,8.38
2018-10-12T06:17:26.046Z,10.05
2018-10-12T06:19:59.848Z,10.43
2018-10-12T06:22:33.471Z,10.45
2018-10-12T06:25:07.045Z,10.75
2018-10-12T06:27:40.656Z,8.00
2018-10-12T06:30:14.207Z,11.75
2018-10-12T06:32:47.837Z,9.88
2018-10-12T06:35:22.128Z,9.05
2018-10-12T06:37:56.443Z,10.05
2018-10-12T06:40:30.968Z,11.05
2018-10-12T06:43:04.823Z,10.82
2018-10-12T06:45:38.382Z,9.48
2018-10-12T06:48:12.271Z,13.35
2018-10-12T06:50:45.979Z,9.35
2018-10-12T06:53:19.586Z,7.50
2018-10-12T06:55:53.383Z,8.57
2018-10-12T06:58:26.992Z,7.07
2018-10-12T07:01:00.708Z,8.27
2018-10-12T07:03:34.295Z,10.40
2018-10-12T07:06:07.879Z,9.60
2018-10-12T07:08:41.713Z,9.43
2018-10-12T07:11:16.133Z,13.15
2018-10-12T07:13:49.927Z,9.48
2018-10-12T07:16:23.499Z,11.88
2018-10-12T07:18:58.063Z,11.88
2018-10-12T07:21:31.658Z,12.30
2018-10-12T07:24:05.465Z,9.70
2018-10-12T07:26:39.954Z,9.75
2018-10-12T07:29:13.759Z,9.63
2018-10-12T07:31:47.313Z,9.35
2018-10-12T07:34:21.593Z,8.90
2018-10-12T07:36:56.035Z,14.63
2018-10-12T07:39:30.555Z,13.73
2018-10-12T07:42:04.209Z,10.32
2018-10-12T07:44:37.956Z,10.48
2018-10-12T07:47:11.592Z,11.48
2018-10-12T07:49:45.365Z,9.65
2018-10-12T07:52:19.881Z,11.13
2018-10-12T07:54:53.510Z,14.10
2018-10-12T07:57:27.076Z,12.03
2018-10-12T08:00:00.713Z,9.23
2018-10-12T08:02:34.381Z,9.33
2018-10-12T08:05:07.997Z,8.97
2018-10-12T08:07:41.811Z,9.00
2018-10-12T08:10:15.429Z,12.60
2018-10-12T08:12:49.924Z,10.90
2018-10-12T08:15:24.142Z,9.53
2018-10-12T08:17:57.742Z,13.00
2018-10-12T08:20:31.398Z,11.27
2018-10-12T08:23:04.916Z,8.73
2018-10-12T08:25:38.550Z,9.80
2018-10-12T08:28:12.395Z,9.33
2018-10-12T08:30:46.103Z,8.70
2018-10-12T08:33:19.885Z,9.87
2018-10-12T08:35:53.578Z,12.00
2018-10-12T08:38:27.213Z,9.30
2018-10-12T08:41:00.944Z,9.97
2018-10-12T08:43:34.728Z,9.10
2018-10-12T08:46:09.298Z,9.83
2018-10-12T08:48:43.068Z,10.00
2018-10-12T08:51:17.689Z,9.60
2018-10-12T08:53:51.546Z,8.50
2018-10-12T08:56:25.262Z,9.20
2018-10-12T08:58:59.909Z,8.43
2018-10-12T09:01:34.212Z,7.07
2018-10-12T09:04:08.047Z,7.90
2018-10-12T09:06:41.868Z,7.30
2018-10-12T09:09:15.652Z,6.30
2018-10-12T09:11:49.317Z,4.90
2018-10-12T09:14:22.897Z,5.90
2018-10-12T09:16:57.333Z,5.10
2018-10-12T09:19:30.911Z,6.80
2018-10-12T09:22:04.452Z,4.83
2018-10-12T09:24:38.105Z,7.23
2018-10-12T09:27:11.917Z,5.17
2018-10-12T09:29:45.566Z,5.07
2018-10-12T09:32:19.152Z,5.50
2018-10-12T09:34:53.698Z,5.57
2018-10-12T09:37:27.485Z,5.00
2018-10-12T09:40:01.088Z,5.93
2018-10-12T09:42:34.916Z,6.73
2018-10-12T09:45:08.703Z,6.50
2018-10-12T09:47:42.539Z,7.03
2018-10-12T09:50:16.138Z,7.50
2018-10-12T09:52:49.669Z,7.33
2018-10-12T09:55:23.407Z,9.23
2018-10-12T09:57:57.716Z,8.30
2018-10-12T10:00:31.451Z,6.90
2018-10-12T10:03:05.246Z,5.90
2018-10-12T10:05:38.913Z,9.80
2018-10-12T10:08:12.865Z,8.60
2018-10-12T10:10:46.267Z,7.23
2018-10-12T10:13:19.928Z,5.83
2018-10-12T10:15:53.813Z,8.23
2018-10-12T10:18:27.476Z,7.53
2018-10-12T10:21:01.196Z,5.40
2018-10-12T10:23:34.992Z,10.90
2018-10-12T10:26:08.657Z,6.40
2018-10-12T10:28:42.259Z,6.10
2018-10-12T10:31:15.881Z,8.83
2018-10-12T10:33:49.637Z,6.63
2018-10-12T10:36:23.963Z,5.93
2018-10-12T10:38:58.362Z,6.73
2018-10-12T10:41:32.023Z,7.80
2018-10-12T10:44:05.722Z,5.50
2018-10-12T10:46:39.322Z,6.53
2018-10-12T10:49:12.938Z,6.17
2018-10-12T10:51:47.457Z,5.70
2018-10-12T10:54:21.111Z,4.80
2018-10-12T10:56:54.867Z,5.83
2018-10-12T10:59:29.388Z,5.87
2018-10-12T11:02:03.201Z,5.27
2018-10-12T11:04:37.001Z,5.03
2018-10-12T11:07:11.643Z,5.30
2018-10-12T11:09:45.282Z,3.87
2018-10-12T11:12:19.808Z,4.40
2018-10-12T11:14:53.507Z,5.63
2018-10-12T11:17:27.881Z,4.20
2018-10-12T11:20:01.483Z,3.97
2018-10-12T11:22:35.140Z,4.50
2018-10-12T11:25:09.041Z,4.17
2018-10-12T11:27:43.623Z,2.87
2018-10-12T11:30:17.287Z,3.53
2018-10-12T11:32:51.818Z,3.77
2018-10-12T11:35:25.313Z,3.90
2018-10-12T11:37:58.862Z,3.10
2018-10-12T11:40:32.545Z,3.67
2018-10-12T11:43:16.098Z,3.57
2018-10-12T11:45:59.542Z,3.10
2018-10-12T11:48:33.218Z,4.10
2018-10-12T11:51:06.865Z,3.03
2018-10-12T11:53:41.245Z,3.13
2018-10-12T11:56:14.910Z,4.77
2018-10-12T11:58:48.513Z,3.80
2018-10-12T12:01:22.097Z,3.87
2018-10-12T12:03:55.694Z,3.97
2018-10-12T12:06:29.269Z,5.87
2018-10-12T12:09:02.885Z,4.37
2018-10-12T12:11:36.530Z,5.30
2018-10-12T12:14:10.213Z,4.40
2018-10-12T12:16:43.807Z,4.20
2018-10-12T12:19:17.567Z,3.93
2018-10-12T12:21:51.110Z,3.40
2018-10-12T12:24:24.735Z,2.50
2018-10-12T12:26:58.365Z,4.20
2018-10-12T12:29:32.842Z,4.67
2018-10-12T12:32:07.275Z,3.50
2018-10-12T12:34:41.026Z,4.03
2018-10-12T12:37:14.549Z,5.30
2018-10-12T12:39:49.144Z,2.30
2018-10-12T12:42:22.929Z,2.73
2018-10-12T12:44:56.582Z,3.70
2018-10-12T12:47:30.341Z,3.90
2018-10-12T12:50:04.089Z,3.80
2018-10-12T12:52:37.805Z,3.63
2018-10-12T12:55:11.556Z,2.70
2018-10-12T12:57:46.089Z,3.30
2018-10-12T13:00:19.762Z,3.53
2018-10-12T13:02:54.248Z,3.40
2018-10-12T13:05:27.763Z,3.30
2018-10-12T13:08:01.400Z,4.60
2018-10-12T13:10:35.055Z,2.80
2018-10-12T13:13:09.641Z,3.47
2018-10-12T13:15:43.490Z,5.50
2018-10-12T13:18:18.035Z,3.60
2018-10-12T13:20:51.650Z,3.60
2018-10-12T13:23:25.419Z,2.90
2018-10-12T13:25:59.112Z,4.87
2018-10-12T13:28:32.701Z,3.33
2018-10-12T13:31:06.321Z,3.50
2018-10-12T13:33:40.748Z,3.90
2018-10-12T13:36:16.059Z,2.30
2018-10-12T13:38:49.718Z,2.37
2018-10-12T13:41:23.286Z,2.33
2018-10-12T13:43:56.933Z,5.90
2018-10-12T13:46:30.574Z,3.00
2018-10-12T13:49:04.134Z,2.20
2018-10-12T13:51:38.730Z,4.17
2018-10-12T13:54:12.389Z,2.17
2018-10-12T13:56:46.123Z,3.03
2018-10-12T13:59:19.753Z,2.43
2018-10-12T14:01:53.425Z,1.97
2018-10-12T14:04:27.073Z,5.70
2018-10-12T14:07:00.639Z,5.20
2018-10-12T14:09:34.207Z,2.47
2018-10-12T14:12:07.784Z,3.30
2018-10-12T14:14:41.361Z,2.13
2018-10-12T14:17:15.041Z,1.93
2018-10-12T14:19:48.764Z,3.20
2018-10-12T14:22:22.497Z,2.60
2018-10-12T14:24:57.070Z,6.90
2018-10-12T14:27:30.770Z,2.50
2018-10-12T14:30:04.543Z,2.20
2018-10-12T14:32:38.189Z,7.90
2018-10-12T14:35:11.754Z,2.40
2018-10-12T14:37:45.420Z,2.33
2018-10-12T14:40:19.034Z,2.87
2018-10-12T14:42:52.856Z,5.30
2018-10-12T14:45:26.484Z,4.83
2018-10-12T14:48:00.075Z,2.10
2018-10-12T14:50:34.485Z,2.97
2018-10-12T14:53:09.108Z,3.13
2018-10-12T14:55:42.710Z,4.00
2018-10-12T14:58:16.397Z,6.63
2018-10-12T15:00:50.026Z,10.10
2018-10-12T15:03:23.718Z,1.97
2018-10-12T15:05:58.243Z,2.73
2018-10-12T15:08:31.780Z,1.93
2018-10-12T15:11:05.409Z,3.10
2018-10-12T15:13:38.937Z,3.20
2018-10-12T15:16:12.648Z,4.33
2018-10-12T15:18:46.344Z,2.93
2018-10-12T15:21:20.102Z,3.07
2018-10-12T15:23:54.439Z,2.90
2018-10-12T15:26:28.026Z,2.47
2018-10-12T15:29:02.501Z,3.47
2018-10-12T15:31:36.343Z,3.43
2018-10-12T15:34:10.855Z,3.10
2018-10-12T15:36:44.506Z,2.20
2018-10-12T15:39:18.986Z,2.87
2018-10-12T15:41:53.564Z,3.90
2018-10-12T15:44:27.981Z,3.07
2018-10-12T15:47:01.551Z,2.60
2018-10-12T15:49:35.181Z,4.37
2018-10-12T15:52:08.888Z,2.30
2018-10-12T15:54:42.725Z,3.07
2018-10-12T15:57:16.501Z,4.63
2018-10-12T15:59:51.008Z,4.20
2018-10-12T16:02:24.642Z,4.32
2018-10-12T16:04:58.243Z,5.70
2018-10-12T16:07:31.831Z,6.60
2018-10-12T16:10:05.442Z,4.97
2018-10-12T16:12:39.129Z,4.80
2018-10-12T16:15:13.726Z,5.57
2018-10-12T16:17:47.561Z,4.63
2018-10-12T16:20:21.156Z,6.40
2018-10-12T16:22:54.837Z,4.47
2018-10-12T16:25:40.803Z,3.50
2018-10-12T16:28:14.357Z,3.47
2018-10-12T16:30:48.771Z,5.80
2018-10-12T16:33:22.511Z,6.10
2018-10-12T16:35:56.419Z,6.23
2018-10-12T16:38:29.948Z,5.90
2018-10-12T16:41:03.692Z,12.43
2018-10-12T16:43:37.271Z,7.30
2018-10-12T16:46:11.353Z,6.43
2018-10-12T16:48:45.733Z,4.30
2018-10-12T16:51:19.329Z,6.93
2018-10-12T16:53:52.914Z,5.70
2018-10-12T16:56:26.529Z,4.87
2018-10-12T16:59:00.209Z,5.80
2018-10-12T17:01:33.848Z,8.97
2018-10-12T17:04:08.358Z,7.77
2018-10-12T17:06:42.019Z,6.00
2018-10-12T17:09:16.568Z,5.77
2018-10-12T17:11:50.183Z,7.23
2018-10-12T17:14:23.876Z,6.27
2018-10-12T17:16:57.656Z,5.97
2018-10-12T17:19:31.369Z,7.40
2018-10-12T17:22:04.943Z,7.87
2018-10-12T17:24:38.661Z,5.73
2018-10-12T17:27:13.208Z,7.77
2018-10-12T17:29:47.039Z,9.40
2018-10-12T17:32:20.776Z,6.77
2018-10-12T17:34:55.327Z,6.28
2018-10-12T17:37:29.883Z,9.90
2018-10-12T17:40:03.508Z,12.60
2018-10-12T17:42:37.202Z,7.75
2018-10-12T17:45:10.920Z,8.47
2018-10-12T17:47:44.661Z,13.88
2018-10-12T17:50:19.038Z,9.43
2018-10-12T17:52:52.713Z,10.55
2018-10-12T17:55:26.392Z,10.57
2018-10-12T17:57:59.977Z,9.40
2018-10-12T18:00:33.797Z,10.00
2018-10-12T18:03:07.424Z,9.13
2018-10-12T18:05:41.869Z,6.60
2018-10-12T18:08:16.435Z,8.07
2018-10-12T18:10:50.054Z,11.93
2018-10-12T18:13:23.829Z,7.90
2018-10-12T18:15:57.552Z,6.90
2018-10-12T18:18:31.997Z,9.20
2018-10-12T18:21:05.760Z,8.90
2018-10-12T18:23:39.419Z,10.50
2018-10-12T18:26:13.116Z,7.80
2018-10-12T18:28:46.702Z,8.45
2018-10-12T18:31:20.344Z,8.00
2018-10-12T18:33:54.205Z,10.90
2018-10-12T18:36:27.874Z,10.25
2018-10-12T18:39:01.606Z,8.80
2018-10-12T18:41:35.082Z,7.35
2018-10-12T18:44:08.694Z,11.43
2018-10-12T18:46:42.645Z,7.75
2018-10-12T18:49:16.363Z,7.00
2018-10-12T18:51:50.073Z,9.65
2018-10-12T18:54:23.866Z,11.15
2018-10-12T18:56:57.491Z,11.45
2018-10-12T18:59:31.953Z,13.38
2018-10-12T19:02:05.626Z,10.65
2018-10-12T19:04:39.510Z,12.95
2018-10-12T19:07:13.114Z,10.85
2018-10-12T19:09:46.693Z,11.27
2018-10-12T19:12:20.404Z,9.85
2018-10-12T19:14:55.026Z,8.13
2018-10-12T19:17:28.852Z,11.02
2018-10-12T19:20:02.583Z,10.23
2018-10-12T19:22:36.277Z,12.95
2018-10-12T19:25:10.916Z,8.70
2018-10-12T19:27:44.785Z,11.60
2018-10-12T19:30:18.832Z,8.13
2018-10-12T19:32:52.632Z,8.05
2018-10-12T19:35:26.191Z,7.07
2018-10-12T19:37:59.991Z,11.68
2018-10-12T19:40:33.710Z,9.93
2018-10-12T19:43:07.429Z,10.85
2018-10-12T19:45:41.778Z,9.20
2018-10-12T19:48:16.133Z,11.88
2018-10-12T19:50:49.954Z,8.63
2018-10-12T19:53:23.538Z,7.12
2018-10-12T19:55:57.345Z,7.55
2018-10-12T19:58:31.053Z,8.50
2018-10-12T20:01:04.825Z,7.25
2018-10-12T20:03:38.618Z,8.20
2018-10-12T20:06:12.433Z,6.18
2018-10-12T20:08:46.773Z,5.65
2018-10-12T20:11:20.369Z,6.00
2018-10-12T20:13:54.783Z,6.75
2018-10-12T20:16:28.459Z,7.10
2018-10-12T20:19:02.941Z,6.00
2018-10-12T20:21:36.651Z,11.85
2018-10-12T20:24:10.244Z,7.80
2018-10-12T20:26:44.738Z,7.00
2018-10-12T20:29:18.380Z,6.97
2018-10-12T20:31:52.225Z,7.35
2018-10-12T20:34:26.143Z,6.72
2018-10-12T20:37:00.769Z,6.55
2018-10-12T20:39:34.570Z,6.62
2018-10-12T20:42:08.342Z,27.85
2018-10-12T20:44:42.029Z,9.15
2018-10-12T20:47:15.661Z,5.75
2018-10-12T20:49:49.459Z,7.50
2018-10-12T20:52:23.055Z,5.57
2018-10-12T20:54:56.879Z,5.70
2018-10-12T20:57:31.239Z,9.30
2018-10-12T21:00:04.895Z,8.95
2018-10-12T21:02:39.179Z,5.25
2018-10-12T21:05:12.764Z,7.25
2018-10-12T21:07:46.367Z,4.82
2018-10-12T21:10:19.961Z,5.65
2018-10-12T21:12:53.694Z,6.93
2018-10-12T21:15:27.313Z,6.62
2018-10-12T21:18:01.876Z,6.62
2018-10-12T21:20:35.405Z,8.70
2018-10-12T21:23:09.025Z,7.80
2018-10-12T21:25:42.693Z,5.30
2018-10-12T21:28:16.366Z,6.75
2018-10-12T21:30:50.016Z,6.05
2018-10-12T21:33:23.580Z,6.18
2018-10-12T21:35:57.446Z,4.90
2018-10-12T21:38:31.257Z,6.32
2018-10-12T21:41:05.025Z,5.50
2018-10-12T21:43:38.794Z,5.15
2018-10-12T21:46:12.423Z,6.10
2018-10-12T21:48:45.924Z,5.82
2018-10-12T21:51:19.481Z,6.18
2018-10-12T21:53:53.051Z,5.90
2018-10-12T21:56:26.725Z,6.22
2018-10-12T21:59:00.325Z,6.85
2018-10-12T22:01:34.720Z,6.03
2018-10-12T22:04:08.479Z,6.50
2018-10-12T22:06:42.818Z,5.53
2018-10-12T22:09:17.421Z,5.10
2018-10-12T22:11:51.945Z,6.22
2018-10-12T22:14:25.656Z,9.18
2018-10-12T22:16:59.478Z,8.18
2018-10-12T22:19:33.038Z,5.40
2018-10-12T22:22:06.649Z,8.18
2018-10-12T22:24:41.168Z,8.48
2018-10-12T22:27:14.907Z,8.85
2018-10-12T22:29:49.282Z,6.20
2018-10-12T22:32:23.049Z,8.30
2018-10-12T22:34:56.936Z,6.03
2018-10-12T22:37:30.497Z,5.57
2018-10-12T22:40:04.265Z,8.25
2018-10-12T22:42:38.692Z,8.27
2018-10-12T22:45:13.050Z,7.80
2018-10-12T22:47:46.908Z,8.02
2018-10-12T22:50:20.678Z,5.32
2018-10-12T22:52:54.354Z,12.05
2018-10-12T22:55:28.191Z,7.70
2018-10-12T22:58:01.791Z,6.50
2018-10-12T23:00:35.627Z,4.85
2018-10-12T23:03:09.193Z,6.07
2018-10-12T23:05:42.899Z,7.25
2018-10-12T23:08:16.686Z,5.50
2018-10-12T23:10:50.349Z,6.93
2018-10-12T23:13:24.080Z,5.62
2018-10-12T23:15:57.854Z,4.70
2018-10-12T23:18:31.504Z,9.68
2018-10-12T23:21:06.023Z,6.07
2018-10-12T23:23:39.609Z,6.57
2018-10-12T23:26:13.249Z,5.25
2018-10-12T23:28:46.920Z,7.93
2018-10-12T23:31:20.757Z,6.70
2018-10-12T23:33:55.220Z,6.12
2018-10-12T23:36:28.990Z,7.25
2018-10-12T23:39:02.561Z,6.05
2018-10-12T23:41:36.355Z,8.70
2018-10-12T23:44:10.071Z,8.05
2018-10-12T23:46:43.759Z,5.00
2018-10-12T23:49:17.565Z,5.68
2018-10-12T23:51:51.166Z,6.75
2018-10-12T23:54:24.756Z,6.47
2018-10-12T23:56:58.382Z,5.80
2018-10-12T23:59:31.986Z,5.68
